createdAt,value
2022-11-09T06:12:01.579Z,11.20
2022-11-09T06:14:29.542Z,11.20
2022-11-09T06:16:57.467Z,11.20
2022-11-09T06:19:25.396Z,11.30
2022-11-09T06:21:53.315Z,11.30
2022-11-09T06:24:21.361Z,11.30
2022-11-09T06:26:49.310Z,11.30
2022-11-09T06:29:19.757Z,11.40
2022-11-09T06:31:48.986Z,11.40
2022-11-09T06:34:16.919Z,11.50
2022-11-09T06:36:45.180Z,11.40
2022-11-09T06:39:13.178Z,11.50
2022-11-09T06:41:46.124Z,11.50
2022-11-09T06:44:15.522Z,11.50
2022-11-09T06:46:44.907Z,11.50
2022-11-09T06:49:12.897Z,11.50
2022-11-09T06:51:40.879Z,11.50
2022-11-09T06:54:08.885Z,11.50
2022-11-09T12:26:27.011Z,15.00
2022-11-09T12:36:17.355Z,14.80
2022-11-09T13:00:56.731Z,15.30
2022-11-09T13:10:46.177Z,15.60
2022-11-09T13:13:25.691Z,15.80
2022-11-09T13:16:13.530Z,15.80
2022-11-09T13:26:02.363Z,16.00
2022-11-09T13:28:44.748Z,15.90
2022-11-09T14:01:33.039Z,15.30
2022-11-09T14:04:03.952Z,15.40
2022-11-09T15:26:37.467Z,14.00
2022-11-09T15:29:29.335Z,14.00
2022-11-09T15:32:02.942Z,13.90
2022-11-09T15:34:37.678Z,14.00
2022-11-09T15:37:06.257Z,13.90
2022-11-09T15:39:34.922Z,13.90
2022-11-09T15:42:04.670Z,14.00
2022-11-09T15:44:33.388Z,13.90
2022-11-09T15:47:02.467Z,14.00
2022-11-09T15:49:31.298Z,13.80
2022-11-09T15:51:59.453Z,13.80
2022-11-09T15:54:27.876Z,13.80
2022-11-09T15:56:56.169Z,13.70
2022-11-09T15:59:27.741Z,13.70
2022-11-09T16:01:55.934Z,13.70
2022-11-09T16:04:24.037Z,13.60
2022-11-09T16:06:52.258Z,13.60
2022-11-09T16:09:20.430Z,13.60
2022-11-09T16:11:51.048Z,13.50
2022-11-09T16:14:21.578Z,13.50
2022-11-09T16:16:51.337Z,13.50
2022-11-09T16:19:19.455Z,13.50
2022-11-09T16:21:47.717Z,13.40
2022-11-09T16:24:17.806Z,13.30
2022-11-09T16:26:46.580Z,13.30
2022-11-09T16:29:15.018Z,13.30
2022-11-09T16:31:52.120Z,13.20
2022-11-09T16:34:22.375Z,13.30
2022-11-09T16:36:56.607Z,13.20
2022-11-09T16:39:27.178Z,13.20
2022-11-09T16:41:56.622Z,13.20
